Time;durP1;ratioP1;P1;durP2;ratioP2;P2;SDS_P1;SDS_P2;PMS_P1;PMS_P2;Temp;Humidity;BMP_temperature;BMP_pressure;BME280_temperature;BME280_humidity;BME280_pressure;Samples;Min_cycle;Max_cycle;Signal;HPM_P1;HPM_P2
2022/12/11 00:00:47;;;;;;;51.88;19.40;;;-0.50;99.90;;;;;;5115092;28;20057;-61
2022/12/11 00:03:14;;;;;;;51.15;19.65;;;-0.50;99.90;;;;;;5114989;28;20636;-61
2022/12/11 00:05:41;;;;;;;52.97;19.60;;;-0.70;99.90;;;;;;5114833;28;20529;-61
2022/12/11 00:08:07;;;;;;;47.85;19.15;;;-0.80;99.90;;;;;;5114523;28;20096;-61
2022/12/11 00:10:33;;;;;;;49.72;19.15;;;-0.60;99.90;;;;;;5114517;28;20035;-61
2022/12/11 00:12:58;;;;;;;41.95;18.55;;;-0.80;99.90;;;;;;5114705;28;20040;-61
2022/12/11 00:15:24;;;;;;;43.03;18.08;;;-0.50;99.90;;;;;;5114400;28;20042;-62
2022/12/11 00:17:49;;;;;;;41.78;17.30;;;-0.50;99.90;;;;;;5114719;28;20054;-62
2022/12/11 00:20:15;;;;;;;42.50;17.73;;;-0.50;99.90;;;;;;5114519;28;20130;-62
2022/12/11 00:22:41;;;;;;;43.88;17.65;;;-0.40;99.90;;;;;;5096039;28;20041;-61
2022/12/11 00:25:07;;;;;;;46.55;19.00;;;-0.60;99.90;;;;;;5114312;28;20031;-61
2022/12/11 00:27:33;;;;;;;43.45;17.67;;;-0.40;99.90;;;;;;5114459;28;20036;-61
2022/12/11 00:29:59;;;;;;;38.35;16.42;;;-0.60;99.90;;;;;;5114373;28;20419;-62
2022/12/11 00:32:25;;;;;;;41.00;16.92;;;-0.60;99.90;;;;;;5113956;28;20042;-61
2022/12/11 00:34:51;;;;;;;41.95;17.98;;;-0.40;99.90;;;;;;5114014;28;20047;-62
2022/12/11 00:37:17;;;;;;;43.42;15.75;;;-0.50;99.90;;;;;;5113827;28;20460;-61
2022/12/11 00:39:42;;;;;;;37.20;15.82;;;-0.20;99.90;;;;;;5114033;28;20036;-62
2022/12/11 00:42:08;;;;;;;41.08;16.35;;;-0.30;99.90;;;;;;5114072;28;20115;-61
2022/12/11 00:44:34;;;;;;;40.53;17.17;;;-0.50;99.90;;;;;;5114189;28;20043;-61
2022/12/11 00:47:00;;;;;;;41.35;16.20;;;-0.20;99.90;;;;;;5114062;28;20120;-62
2022/12/11 00:49:26;;;;;;;44.30;17.52;;;-0.50;99.90;;;;;;5114126;28;20156;-62
2022/12/11 00:51:52;;;;;;;40.95;16.50;;;-0.40;99.90;;;;;;5095716;28;20048;-61
2022/12/11 00:54:17;;;;;;;45.78;18.77;;;-0.40;99.90;;;;;;5113498;28;20046;-61
2022/12/11 00:56:43;;;;;;;41.58;16.90;;;-0.30;99.90;;;;;;5113750;28;20035;-62
2022/12/11 00:59:09;;;;;;;37.70;17.48;;;-0.20;99.90;;;;;;5113848;28;20477;-62
2022/12/11 01:01:34;;;;;;;39.15;16.48;;;-0.40;99.90;;;;;;5113495;28;20389;-62
2022/12/11 01:04:00;;;;;;;47.33;18.05;;;-0.10;99.90;;;;;;5112897;28;20035;-61
2022/12/11 01:06:27;;;;;;;39.15;15.80;;;-0.40;99.90;;;;;;5113461;28;20032;-61
2022/12/11 01:11:38;;;;;;;43.75;17.17;;;0.00;99.90;;;;;;5113469;28;20122;-63
2022/12/11 01:14:04;;;;;;;36.25;16.60;;;-0.20;99.90;;;;;;5113424;28;20393;-61
2022/12/11 01:16:30;;;;;;;36.80;16.63;;;-0.20;99.90;;;;;;5094959;28;20039;-61
2022/12/11 01:18:56;;;;;;;43.47;17.10;;;0.00;99.90;;;;;;5113633;28;20108;-61
2022/12/11 01:21:22;;;;;;;41.17;17.70;;;-0.20;99.90;;;;;;5113058;28;20370;-61
2022/12/11 01:23:49;;;;;;;35.70;17.38;;;-0.20;99.90;;;;;;5113326;28;20035;-62
2022/12/11 01:26:15;;;;;;;38.55;16.10;;;0.00;99.90;;;;;;5113057;28;20114;-61
2022/12/11 01:28:42;;;;;;;39.10;17.02;;;0.00;99.90;;;;;;5113150;28;20131;-62
2022/12/11 01:31:12;;;;;;;39.65;17.15;;;0.00;99.90;;;;;;5113076;28;20104;-61
2022/12/11 01:33:38;;;;;;;43.80;16.77;;;0.10;99.90;;;;;;5113283;28;20040;-62
2022/12/11 01:36:08;;;;;;;44.60;17.67;;;0.10;99.90;;;;;;5112823;28;20477;-62
2022/12/11 01:38:34;;;;;;;39.67;17.33;;;0.10;99.90;;;;;;5112800;28;20035;-62
2022/12/11 01:41:00;;;;;;;40.60;17.85;;;0.10;99.90;;;;;;5094720;28;20081;-62
2022/12/11 01:43:25;;;;;;;44.08;18.08;;;0.00;99.90;;;;;;5094725;28;20085;-62
2022/12/11 01:45:51;;;;;;;48.17;18.25;;;0.10;99.90;;;;;;5112720;28;20036;-62
2022/12/11 01:48:27;;;;;;;50.88;20.02;;;0.20;99.90;;;;;;5112661;28;20035;-62
2022/12/11 01:50:59;;;;;;;43.40;19.52;;;0.10;99.90;;;;;;5112687;28;20097;-62
2022/12/11 01:53:33;;;;;;;49.95;18.80;;;0.00;99.90;;;;;;5112534;28;20043;-62
2022/12/11 01:56:00;;;;;;;46.67;18.58;;;0.10;99.90;;;;;;5112750;28;20084;-62
2022/12/11 01:58:31;;;;;;;52.03;18.40;;;0.20;99.90;;;;;;5112468;28;20093;-61
2022/12/11 02:00:57;;;;;;;54.40;22.15;;;0.30;99.90;;;;;;5112345;28;20032;-62
2022/12/11 02:03:23;;;;;;;62.75;24.98;;;0.30;99.90;;;;;;5112436;28;20417;-62
2022/12/11 02:05:49;;;;;;;54.65;22.35;;;0.30;99.90;;;;;;5112679;28;20039;-62
2022/12/11 02:08:15;;;;;;;59.88;22.60;;;0.10;99.90;;;;;;5112506;28;20446;-62
2022/12/11 02:11:10;;;;;;;58.97;22.55;;;0.30;99.90;;;;;;5112389;28;20389;-62
2022/12/11 02:13:53;;;;;;;58.95;21.40;;;0.10;99.90;;;;;;5112186;28;20039;-62
2022/12/11 02:16:33;;;;;;;58.38;22.73;;;0.30;99.90;;;;;;5111384;28;20039;-62
2022/12/11 02:19:17;;;;;;;54.03;20.63;;;0.20;99.90;;;;;;5112351;28;20124;-61
2022/12/11 02:21:49;;;;;;;45.90;19.73;;;0.20;99.90;;;;;;5112057;28;20043;-62
2022/12/11 02:24:48;;;;;;;52.83;20.13;;;0.30;99.90;;;;;;5112172;28;20042;-62
2022/12/11 02:27:27;;;;;;;54.45;21.10;;;0.40;99.90;;;;;;5112247;28;20122;-61
2022/12/11 02:30:05;;;;;;;60.03;22.13;;;0.20;99.90;;;;;;5112507;28;20047;-61
2022/12/11 02:32:47;;;;;;;49.80;20.70;;;0.20;99.90;;;;;;5112355;28;20044;-61
2022/12/11 02:35:13;;;;;;;53.78;20.65;;;0.40;99.90;;;;;;5112211;28;20050;-62
2022/12/11 02:37:42;;;;;;;62.20;23.92;;;0.40;99.90;;;;;;5112105;28;20040;-62
2022/12/11 02:40:11;;;;;;;57.03;22.92;;;0.30;99.90;;;;;;5112133;28;20039;-62
2022/12/11 02:42:39;;;;;;;63.65;22.90;;;0.40;99.90;;;;;;5111985;28;20035;-62
2022/12/11 02:45:07;;;;;;;57.88;22.00;;;0.40;99.90;;;;;;5112177;28;20106;-61
2022/12/11 02:47:33;;;;;;;51.72;20.45;;;0.30;99.90;;;;;;5112012;28;20397;-62
2022/12/11 02:50:02;;;;;;;57.55;20.60;;;0.60;99.90;;;;;;5112119;28;20031;-62
2022/12/11 02:52:30;;;;;;;51.17;21.13;;;0.40;99.90;;;;;;5111793;28;20092;-61
2022/12/11 02:54:59;;;;;;;51.42;20.00;;;0.50;99.90;;;;;;5111664;28;20505;-62
2022/12/11 02:57:33;;;;;;;51.88;20.77;;;0.60;99.90;;;;;;5111912;28;20056;-62
2022/12/11 02:59:59;;;;;;;53.22;21.05;;;0.40;99.90;;;;;;5112188;28;20448;-61
2022/12/11 03:02:25;;;;;;;57.17;21.15;;;0.50;99.90;;;;;;5093784;28;20521;-62
2022/12/11 03:04:51;;;;;;;53.83;21.00;;;0.40;99.90;;;;;;5111901;28;20036;-62
2022/12/11 03:07:24;;;;;;;59.13;21.83;;;0.50;99.90;;;;;;5111757;28;20047;-61
2022/12/11 03:09:50;;;;;;;50.88;19.67;;;0.30;99.90;;;;;;5111667;28;20485;-62
2022/12/11 03:12:26;;;;;;;47.25;19.30;;;0.80;99.90;;;;;;5111877;28;20039;-62
2022/12/11 03:14:52;;;;;;;51.88;19.73;;;0.60;99.90;;;;;;5111991;28;20039;-62
2022/12/11 03:17:21;;;;;;;58.90;20.30;;;0.60;99.90;;;;;;5111921;28;20390;-61
2022/12/11 03:19:59;;;;;;;58.35;19.83;;;0.50;99.90;;;;;;5111783;28;20028;-62
2022/12/11 03:22:41;;;;;;;53.42;21.02;;;0.50;99.90;;;;;;5111634;28;20039;-62
2022/12/11 03:25:13;;;;;;;48.35;20.15;;;0.50;99.90;;;;;;5111734;28;20114;-61
2022/12/11 03:27:45;;;;;;;56.88;20.65;;;0.60;99.90;;;;;;5113682;28;20506;-62
2022/12/11 03:30:15;;;;;;;53.60;20.15;;;0.60;99.90;;;;;;5115442;28;20410;-62
2022/12/11 03:32:49;;;;;;;49.38;20.40;;;0.60;99.90;;;;;;5097065;28;20100;-62
2022/12/11 03:35:20;;;;;;;58.13;19.80;;;0.60;99.90;;;;;;5115231;28;20073;-62
2022/12/11 03:37:49;;;;;;;58.92;19.80;;;0.50;99.90;;;;;;5115389;28;20055;-62
2022/12/11 03:40:18;;;;;;;55.03;18.40;;;0.40;99.90;;;;;;5115243;28;20542;-62
2022/12/11 03:42:47;;;;;;;50.08;19.63;;;0.40;99.90;;;;;;5115483;28;20363;-62
2022/12/11 03:45:15;;;;;;;48.63;19.00;;;0.40;99.90;;;;;;5115022;28;20032;-62
2022/12/11 03:47:42;;;;;;;57.97;20.45;;;0.40;99.90;;;;;;5115181;28;20035;-62
2022/12/11 03:50:11;;;;;;;51.88;19.75;;;0.50;99.90;;;;;;5114982;28;20390;-62
2022/12/11 03:52:40;;;;;;;49.78;20.55;;;0.50;99.90;;;;;;5115072;28;20086;-61
2022/12/11 03:55:07;;;;;;;55.10;19.48;;;0.50;99.90;;;;;;5096359;28;20467;-61
2022/12/11 03:57:35;;;;;;;50.80;18.88;;;0.50;99.90;;;;;;5114741;28;20093;-62
2022/12/11 04:00:03;;;;;;;57.53;18.70;;;0.60;99.90;;;;;;5115046;28;20027;-62
2022/12/11 04:02:29;;;;;;;47.93;18.67;;;0.40;99.90;;;;;;5114880;28;20028;-62
2022/12/11 04:04:55;;;;;;;47.95;18.73;;;0.40;99.90;;;;;;5114612;28;20269;-62
2022/12/11 04:07:21;;;;;;;51.63;19.63;;;0.60;99.90;;;;;;5114672;28;20044;-62
2022/12/11 04:09:46;;;;;;;55.53;19.20;;;0.60;99.90;;;;;;5114771;28;20363;-62
2022/12/11 04:12:12;;;;;;;49.38;18.23;;;0.40;99.90;;;;;;5114654;28;20043;-61
2022/12/11 04:25:35;;;;;;;47.90;17.92;;;0.70;99.90;;;;;;5114643;28;20040;-62
2022/12/11 04:28:01;;;;;;;44.53;17.52;;;0.70;99.90;;;;;;5114227;28;20401;-62
2022/12/11 04:30:27;;;;;;;44.05;17.27;;;0.70;99.90;;;;;;5114264;28;20043;-62
2022/12/11 04:32:53;;;;;;;41.97;16.38;;;0.70;99.90;;;;;;5114266;28;20133;-61
2022/12/11 04:35:20;;;;;;;46.08;16.75;;;0.60;99.90;;;;;;5114414;28;20047;-61
2022/12/11 04:37:46;;;;;;;45.63;17.15;;;0.60;99.90;;;;;;5113973;28;20075;-62
2022/12/11 04:40:14;;;;;;;41.67;16.98;;;0.70;99.90;;;;;;5113319;28;20036;-61
2022/12/11 04:42:41;;;;;;;37.70;16.38;;;0.50;99.90;;;;;;5114209;28;20093;-63
2022/12/11 04:45:08;;;;;;;49.38;18.02;;;0.70;99.90;;;;;;5114099;28;20031;-62
2022/12/11 04:47:35;;;;;;;36.90;17.05;;;0.80;99.90;;;;;;5095899;28;20044;-62
2022/12/11 04:50:01;;;;;;;42.60;16.33;;;0.80;99.90;;;;;;5113989;28;20434;-62
2022/12/11 04:52:26;;;;;;;40.22;17.25;;;0.80;99.90;;;;;;5114081;28;20067;-62
2022/12/11 04:54:52;;;;;;;44.00;18.02;;;0.70;99.90;;;;;;5113731;28;20063;-62
2022/12/11 04:57:19;;;;;;;40.55;17.73;;;0.80;99.90;;;;;;5113583;28;20043;-61
2022/12/11 04:59:45;;;;;;;49.25;18.45;;;0.70;99.90;;;;;;5113782;28;20039;-62
2022/12/11 05:02:10;;;;;;;43.88;17.83;;;0.70;99.90;;;;;;5113675;28;20115;-63
2022/12/11 05:04:36;;;;;;;49.10;17.95;;;0.70;99.90;;;;;;5113960;28;20042;-61
2022/12/11 05:07:02;;;;;;;41.38;16.70;;;0.70;99.90;;;;;;5114071;28;20036;-62
2022/12/11 05:09:28;;;;;;;44.08;17.63;;;0.80;99.90;;;;;;5113823;28;20564;-62
2022/12/11 05:11:54;;;;;;;47.45;18.02;;;0.70;99.90;;;;;;5113530;28;20054;-62
2022/12/11 05:14:20;;;;;;;41.10;16.77;;;0.70;99.90;;;;;;5113457;28;20406;-61
2022/12/11 05:16:46;;;;;;;52.53;18.92;;;0.70;99.90;;;;;;5113350;28;20055;-62
2022/12/11 05:19:12;;;;;;;44.53;18.58;;;0.80;99.90;;;;;;5113323;28;20517;-62
2022/12/11 05:21:37;;;;;;;41.15;15.93;;;0.60;99.90;;;;;;5113479;28;20119;-62
2022/12/11 05:24:04;;;;;;;49.95;18.08;;;0.70;99.90;;;;;;5113565;28;20028;-62
2022/12/11 05:26:29;;;;;;;40.33;17.45;;;0.70;99.90;;;;;;5113328;28;20060;-62
2022/12/11 05:28:55;;;;;;;40.10;16.92;;;0.70;99.90;;;;;;5113215;28;20067;-62
2022/12/11 05:31:23;;;;;;;45.33;17.48;;;0.70;99.90;;;;;;5113004;28;20485;-62
2022/12/11 05:33:49;;;;;;;41.60;18.73;;;0.90;99.90;;;;;;5113318;28;20040;-62
2022/12/11 05:36:18;;;;;;;42.15;16.73;;;0.60;99.90;;;;;;5113288;28;20595;-62
2022/12/11 05:38:44;;;;;;;41.58;17.73;;;0.80;99.90;;;;;;5112899;28;20039;-62
2022/12/11 05:41:12;;;;;;;41.47;16.80;;;0.90;99.90;;;;;;5094313;28;20481;-62
2022/12/11 05:43:38;;;;;;;45.60;17.65;;;0.90;99.90;;;;;;5112783;28;20047;-62
2022/12/11 05:46:06;;;;;;;41.97;17.65;;;0.70;99.90;;;;;;5113094;28;20047;-62
2022/12/11 05:48:33;;;;;;;43.72;18.40;;;0.80;99.90;;;;;;5112873;28;20043;-62
2022/12/11 05:51:00;;;;;;;43.70;18.20;;;0.90;99.90;;;;;;5112669;28;20118;-62
2022/12/11 05:53:26;;;;;;;51.30;19.17;;;0.80;99.90;;;;;;5112681;28;20118;-62
2022/12/11 05:55:51;;;;;;;43.88;17.85;;;0.90;99.90;;;;;;5112640;28;20076;-62
2022/12/11 05:58:18;;;;;;;47.10;17.98;;;0.90;99.90;;;;;;5112433;28;20043;-62
2022/12/11 06:00:43;;;;;;;46.28;17.63;;;0.90;99.90;;;;;;5112520;28;20036;-62
2022/12/11 06:03:09;;;;;;;39.42;15.85;;;0.70;99.90;;;;;;5112809;28;20039;-61
2022/12/11 06:05:40;;;;;;;39.00;16.83;;;0.80;99.90;;;;;;5112587;28;20131;-62
2022/12/11 06:08:06;;;;;;;47.42;18.67;;;0.80;99.90;;;;;;5094287;28;20168;-62
2022/12/11 06:10:32;;;;;;;45.45;17.67;;;0.80;99.90;;;;;;5094531;28;20481;-62
2022/12/11 06:12:57;;;;;;;48.45;18.70;;;0.80;99.90;;;;;;5093870;28;20055;-62
2022/12/11 06:15:23;;;;;;;42.67;18.48;;;0.90;99.90;;;;;;5112296;28;20092;-62
2022/12/11 06:17:48;;;;;;;48.45;18.48;;;0.90;99.90;;;;;;5112459;28;20039;-63
2022/12/11 06:20:14;;;;;;;43.45;17.17;;;0.90;99.90;;;;;;5112368;28;20035;-61
2022/12/11 06:22:40;;;;;;;41.67;17.95;;;0.80;99.90;;;;;;5112347;28;20393;-62
2022/12/11 06:25:06;;;;;;;40.83;17.60;;;0.80;99.90;;;;;;5112496;28;20393;-62
2022/12/11 06:27:32;;;;;;;43.63;18.38;;;0.80;99.90;;;;;;5112472;28;20047;-62
2022/12/11 06:29:58;;;;;;;44.63;17.83;;;0.90;99.90;;;;;;5112274;28;20050;-62
2022/12/11 06:32:23;;;;;;;52.55;18.48;;;0.90;99.90;;;;;;5112363;28;20127;-61
2022/12/11 06:34:49;;;;;;;38.45;16.73;;;0.80;99.90;;;;;;5112166;28;20118;-61
2022/12/11 06:37:14;;;;;;;41.95;16.48;;;0.90;99.90;;;;;;5112202;28;20367;-62
2022/12/11 06:39:40;;;;;;;43.85;18.13;;;0.80;99.90;;;;;;5112213;28;20031;-62
2022/12/11 06:42:06;;;;;;;40.00;17.02;;;0.90;99.90;;;;;;5111817;28;20043;-62
2022/12/11 06:44:31;;;;;;;44.28;17.20;;;1.00;99.90;;;;;;5112365;28;20046;-62
2022/12/11 06:46:57;;;;;;;41.17;16.45;;;0.80;99.90;;;;;;5112016;28;20062;-62
2022/12/11 06:49:22;;;;;;;41.90;15.85;;;0.80;99.90;;;;;;5112222;28;20039;-62
2022/12/11 06:51:48;;;;;;;42.83;18.20;;;0.80;99.90;;;;;;5112214;28;20110;-62
2022/12/11 06:54:14;;;;;;;42.08;16.63;;;0.90;99.90;;;;;;5111890;28;20520;-62
2022/12/11 06:56:39;;;;;;;44.80;17.77;;;0.90;99.90;;;;;;5111752;28;20047;-62
2022/12/11 06:59:06;;;;;;;43.53;18.17;;;0.80;99.90;;;;;;5093467;28;20054;-62
2022/12/11 07:01:31;;;;;;;45.25;18.67;;;0.80;99.90;;;;;;5112157;28;20048;-62
2022/12/11 07:03:58;;;;;;;36.13;17.02;;;1.00;99.90;;;;;;5116100;28;20046;-62
2022/12/11 07:06:26;;;;;;;42.55;17.23;;;0.80;99.90;;;;;;5116042;28;20031;-62
2022/12/11 07:08:52;;;;;;;40.53;16.25;;;0.80;99.90;;;;;;5115830;28;20539;-62
2022/12/11 07:11:19;;;;;;;43.17;17.08;;;0.80;99.90;;;;;;5116029;28;20051;-62
2022/12/11 07:13:45;;;;;;;48.92;17.88;;;0.90;99.90;;;;;;5097930;28;20582;-62
2022/12/11 07:16:13;;;;;;;38.40;16.73;;;0.70;99.90;;;;;;5116186;28;20043;-62
2022/12/11 07:18:46;;;;;;;52.00;19.10;;;0.90;99.90;;;;;;5115901;28;20050;-62
2022/12/11 07:21:13;;;;;;;41.95;16.95;;;0.70;99.90;;;;;;5115988;28;20042;-62
2022/12/11 07:23:39;;;;;;;44.75;17.23;;;0.70;99.90;;;;;;5115641;28;20359;-62
2022/12/11 07:26:06;;;;;;;40.42;16.77;;;0.70;99.90;;;;;;5115742;28;20031;-62
2022/12/11 07:28:33;;;;;;;44.28;17.13;;;0.90;99.90;;;;;;5115267;28;20116;-62
2022/12/11 07:31:03;;;;;;;41.78;17.02;;;0.80;99.90;;;;;;5115551;28;20066;-62
2022/12/11 07:33:29;;;;;;;43.75;16.67;;;0.90;99.90;;;;;;5115502;28;20216;-62
2022/12/11 07:35:54;;;;;;;40.40;17.23;;;0.90;99.90;;;;;;5096754;28;20162;-62
2022/12/11 07:38:20;;;;;;;43.85;16.95;;;1.00;99.90;;;;;;5115246;28;20446;-62
2022/12/11 07:40:45;;;;;;;44.72;18.17;;;1.00;99.90;;;;;;5115560;28;20036;-62
2022/12/11 07:43:11;;;;;;;41.13;16.88;;;0.90;99.90;;;;;;5115110;28;20401;-62
2022/12/11 07:45:37;;;;;;;41.88;15.98;;;1.00;99.90;;;;;;5115484;28;20088;-62
2022/12/11 07:48:03;;;;;;;45.38;16.35;;;1.00;99.90;;;;;;5115524;28;20089;-62
2022/12/11 07:50:28;;;;;;;43.42;16.88;;;0.80;99.90;;;;;;5115481;28;20043;-62
2022/12/11 07:52:54;;;;;;;49.08;17.33;;;0.90;99.90;;;;;;5115019;28;20105;-62
2022/12/11 07:55:19;;;;;;;41.20;16.05;;;0.80;99.90;;;;;;5096187;28;20048;-62
2022/12/11 07:57:45;;;;;;;41.45;16.50;;;0.90;99.90;;;;;;5114428;28;20134;-62
2022/12/11 08:00:11;;;;;;;39.08;15.88;;;0.90;99.90;;;;;;5113264;28;20040;-62
2022/12/11 08:02:37;;;;;;;46.13;17.52;;;0.90;99.90;;;;;;5113428;28;20076;-62
2022/12/11 08:05:03;;;;;;;40.22;16.55;;;0.80;99.90;;;;;;5114880;28;20047;-63
2022/12/11 08:07:29;;;;;;;39.65;17.75;;;0.90;99.90;;;;;;5114661;28;20398;-62
2022/12/11 08:09:54;;;;;;;40.38;18.48;;;1.00;99.90;;;;;;5096594;28;20044;-62
2022/12/11 08:12:20;;;;;;;44.00;17.50;;;0.90;99.90;;;;;;5114862;28;20043;-62
2022/12/11 08:14:45;;;;;;;45.55;18.88;;;0.80;99.90;;;;;;5114690;28;20512;-63
2022/12/11 08:17:11;;;;;;;46.42;19.27;;;1.00;99.90;;;;;;5114671;28;20052;-62
2022/12/11 08:19:36;;;;;;;52.05;18.45;;;1.00;99.90;;;;;;5114586;28;20370;-62
2022/12/11 08:22:03;;;;;;;45.05;17.88;;;1.00;99.90;;;;;;5114491;28;20031;-62
2022/12/11 08:24:28;;;;;;;42.15;17.33;;;1.00;99.90;;;;;;5114742;28;20043;-61
2022/12/11 08:26:54;;;;;;;41.33;18.67;;;0.90;99.90;;;;;;5114515;28;20031;-62
2022/12/11 08:29:19;;;;;;;46.15;17.33;;;1.10;99.90;;;;;;5114652;28;20108;-62
2022/12/11 08:31:45;;;;;;;43.28;18.40;;;1.00;99.90;;;;;;5114505;28;20039;-62
2022/12/11 08:34:12;;;;;;;48.42;18.70;;;1.10;99.90;;;;;;5114321;28;20184;-62
2022/12/11 08:36:38;;;;;;;49.92;18.55;;;1.00;99.90;;;;;;5114621;28;20035;-63
2022/12/11 08:39:04;;;;;;;43.17;17.90;;;1.10;99.90;;;;;;5114132;28;20044;-61
2022/12/11 08:41:30;;;;;;;49.58;19.15;;;1.10;99.90;;;;;;5114348;28;20500;-62
2022/12/11 08:43:57;;;;;;;49.58;18.83;;;1.00;99.90;;;;;;5114039;28;20512;-62
2022/12/11 08:46:26;;;;;;;50.70;18.90;;;1.10;99.90;;;;;;5114109;28;20382;-62
2022/12/11 08:48:52;;;;;;;50.90;18.48;;;1.10;99.90;;;;;;5114000;28;20051;-62
2022/12/11 08:51:22;;;;;;;52.33;19.95;;;1.10;99.90;;;;;;5113875;28;20036;-62
2022/12/11 08:53:48;;;;;;;;;;;0.90;99.90;;;;;;5114308;28;20070;-62
2022/12/11 08:56:16;;;;;;;44.83;18.63;;;1.10;99.90;;;;;;5095784;28;19985;-62
2022/12/11 08:58:43;;;;;;;44.17;19.27;;;1.10;99.90;;;;;;5113632;28;20051;-62
2022/12/11 09:01:20;;;;;;;48.10;19.38;;;1.20;99.90;;;;;;5113784;28;20443;-62
2022/12/11 09:03:47;;;;;;;51.20;19.50;;;1.00;99.90;;;;;;5113598;28;20045;-62
2022/12/11 09:06:16;;;;;;;52.45;20.30;;;1.10;99.90;;;;;;5095572;28;20036;-62
2022/12/11 09:08:43;;;;;;;48.38;20.05;;;1.10;99.90;;;;;;5113762;28;20047;-62
2022/12/11 09:11:12;;;;;;;47.72;20.00;;;1.00;99.90;;;;;;5113608;28;20040;-62
2022/12/11 09:13:39;;;;;;;52.55;20.30;;;1.10;99.90;;;;;;5113439;28;20529;-62
2022/12/11 09:16:11;;;;;;;45.08;18.70;;;0.90;99.90;;;;;;5113679;28;20081;-62
2022/12/11 09:18:38;;;;;;;44.95;17.90;;;1.00;99.90;;;;;;5113191;28;20055;-62
2022/12/11 09:21:09;;;;;;;47.55;20.10;;;1.00;99.90;;;;;;5113608;28;20039;-63
2022/12/11 09:23:35;;;;;;;46.30;19.27;;;1.10;99.90;;;;;;5113909;28;20086;-62
2022/12/11 09:26:05;;;;;;;54.45;19.98;;;1.00;99.90;;;;;;5112866;28;20032;-62
2022/12/11 09:28:31;;;;;;;46.40;19.35;;;1.10;99.90;;;;;;5112966;28;20043;-61
2022/12/11 09:30:57;;;;;;;50.78;19.83;;;0.90;99.90;;;;;;5094975;28;20052;-62
2022/12/11 09:33:23;;;;;;;55.63;21.70;;;1.00;99.90;;;;;;5113555;28;20050;-63
2022/12/11 09:35:59;;;;;;;55.40;21.17;;;1.00;99.90;;;;;;5113419;28;20412;-62
2022/12/11 09:38:25;;;;;;;54.95;21.00;;;1.10;99.90;;;;;;5113001;28;20067;-62
2022/12/11 09:40:50;;;;;;;55.67;23.15;;;1.10;99.90;;;;;;5113052;28;20433;-63
2022/12/11 09:43:37;;;;;;;56.53;20.83;;;1.10;99.90;;;;;;5112781;28;20044;-62
2022/12/11 09:46:09;;;;;;;57.08;22.08;;;1.00;99.90;;;;;;5113135;28;20031;-62
2022/12/11 09:48:37;;;;;;;55.55;21.55;;;1.20;99.90;;;;;;5112850;28;20043;-62
2022/12/11 09:51:16;;;;;;;51.83;20.90;;;0.90;99.90;;;;;;5112820;28;20043;-62
2022/12/11 09:53:41;;;;;;;49.37;20.67;;;1.00;99.90;;;;;;5112822;28;20536;-62
2022/12/11 09:56:49;;;;;;;61.38;21.25;;;1.10;99.90;;;;;;5113318;28;20051;-62
2022/12/11 09:59:41;;;;;;;50.25;19.80;;;1.10;99.90;;;;;;5010164;28;20057;-62
2022/12/11 10:02:26;;;;;;;57.40;21.70;;;1.00;99.90;;;;;;5010170;28;20050;-61
2022/12/11 10:05:06;;;;;;;52.85;21.52;;;1.20;99.90;;;;;;5010354;28;20041;-62
2022/12/11 10:07:37;;;;;;;;;;;1.00;99.90;;;;;;5010652;28;20042;-62
2022/12/11 10:10:15;;;;;;;51.92;19.58;;;1.10;99.90;;;;;;5010176;28;20283;-63
2022/12/11 10:12:52;;;;;;;46.50;19.70;;;1.00;99.90;;;;;;5010052;28;20048;-62
2022/12/11 10:15:27;;;;;;;52.33;19.33;;;1.20;99.90;;;;;;5010029;28;20401;-62
2022/12/11 10:17:55;;;;;;;53.28;20.88;;;1.10;99.90;;;;;;5009952;28;20148;-62
2022/12/11 10:20:38;;;;;;;48.08;20.17;;;1.00;99.90;;;;;;5010039;28;20033;-62
2022/12/11 10:23:12;;;;;;;55.28;20.45;;;1.00;99.90;;;;;;5009884;28;20041;-62
2022/12/11 10:25:47;;;;;;;50.53;20.00;;;1.10;99.90;;;;;;5010012;28;20125;-62
2022/12/11 10:28:18;;;;;;;49.55;19.92;;;1.10;99.90;;;;;;5009819;28;20479;-62
2022/12/11 10:30:48;;;;;;;58.05;21.42;;;1.20;99.90;;;;;;5009899;28;20076;-62
2022/12/11 10:33:18;;;;;;;48.42;19.90;;;1.50;99.90;;;;;;5010053;28;20380;-62
2022/12/11 10:35:46;;;;;;;60.33;20.85;;;1.10;99.90;;;;;;5073991;28;20444;-62
2022/12/11 10:38:15;;;;;;;48.67;20.35;;;1.10;99.90;;;;;;5111696;28;20047;-62
2022/12/11 10:40:44;;;;;;;55.55;21.85;;;1.10;99.90;;;;;;5111961;28;20510;-62
2022/12/11 10:43:10;;;;;;;45.65;19.23;;;1.20;99.90;;;;;;5112152;28;20038;-62
2022/12/11 10:45:36;;;;;;;62.20;20.75;;;1.20;99.90;;;;;;5112057;28;20055;-62
2022/12/11 10:48:04;;;;;;;58.13;21.92;;;1.30;99.90;;;;;;5111847;28;20031;-62
2022/12/11 10:50:30;;;;;;;56.65;20.77;;;1.10;99.90;;;;;;5112107;28;20123;-62
2022/12/11 10:52:56;;;;;;;58.72;22.35;;;1.10;99.90;;;;;;5112111;28;20119;-62
2022/12/11 10:55:27;;;;;;;51.85;20.17;;;1.10;99.90;;;;;;5111799;28;20099;-62
2022/12/11 10:57:56;;;;;;;65.05;22.83;;;1.20;99.90;;;;;;5111923;28;20043;-63
2022/12/11 11:00:38;;;;;;;;;;;1.20;99.90;;;;;;5112344;28;20051;-62
2022/12/11 11:03:18;;;;;;;53.60;20.67;;;1.30;99.90;;;;;;5112284;28;19969;-62
2022/12/11 11:05:44;;;;;;;53.67;19.90;;;1.40;99.90;;;;;;5111861;28;20035;-62
2022/12/11 11:08:13;;;;;;;54.88;20.05;;;1.40;99.90;;;;;;5093650;28;20043;-62
2022/12/11 11:10:53;;;;;;;49.83;20.48;;;1.40;99.90;;;;;;5111784;28;20115;-62
2022/12/11 11:13:23;;;;;;;49.33;20.95;;;1.30;99.90;;;;;;5111716;28;20119;-62
2022/12/11 11:16:01;;;;;;;50.30;19.73;;;1.40;99.90;;;;;;5093811;28;20039;-62
2022/12/11 11:18:29;;;;;;;50.13;20.52;;;1.40;99.90;;;;;;5111787;28;20046;-62
2022/12/11 11:20:55;;;;;;;50.50;21.23;;;1.30;99.90;;;;;;5111765;28;20102;-63
2022/12/11 11:23:22;;;;;;;49.15;20.67;;;1.40;99.90;;;;;;5111652;28;20063;-62
2022/12/11 11:25:59;;;;;;;53.03;22.38;;;1.50;99.90;;;;;;5093863;28;20485;-62
2022/12/11 11:28:39;;;;;;;50.60;20.75;;;1.50;99.90;;;;;;5093472;28;20039;-62
2022/12/11 11:31:09;;;;;;;52.97;20.38;;;1.30;99.90;;;;;;5092986;28;20133;-62
2022/12/11 11:33:36;;;;;;;55.20;21.17;;;1.30;99.90;;;;;;5111645;28;20067;-62
2022/12/11 11:36:06;;;;;;;51.63;20.55;;;1.40;99.90;;;;;;5111508;28;20388;-62
2022/12/11 11:38:36;;;;;;;54.83;22.08;;;1.50;99.90;;;;;;5111652;28;20465;-62
2022/12/11 11:41:10;;;;;;;56.25;20.98;;;1.50;99.90;;;;;;5111616;28;20043;-62
2022/12/11 11:43:41;;;;;;;56.38;22.27;;;1.30;99.90;;;;;;5111694;28;20402;-62
2022/12/11 11:46:18;;;;;;;59.05;22.52;;;1.40;99.90;;;;;;5111354;28;20523;-62
2022/12/11 11:49:05;;;;;;;51.85;21.42;;;1.30;99.90;;;;;;5113690;28;20048;-62
2022/12/11 11:51:37;;;;;;;52.97;21.60;;;1.40;99.90;;;;;;5115218;28;20047;-62
2022/12/11 11:54:17;;;;;;;57.13;20.80;;;1.40;99.90;;;;;;5114926;28;20409;-62
2022/12/11 11:56:43;;;;;;;53.80;21.35;;;1.40;99.90;;;;;;5114836;28;20115;-62
2022/12/11 11:59:16;;;;;;;50.70;20.50;;;1.50;99.90;;;;;;5115209;28;20444;-62
2022/12/11 12:01:42;;;;;;;52.33;20.70;;;1.60;99.90;;;;;;5115097;28;20039;-63
2022/12/11 12:04:09;;;;;;;59.05;21.52;;;1.50;99.90;;;;;;5114280;28;20089;-62
2022/12/11 12:06:44;;;;;;;46.47;21.38;;;1.60;99.90;;;;;;5114717;28;20371;-63
2022/12/11 12:09:19;;;;;;;49.38;20.80;;;1.60;99.90;;;;;;5095771;28;20044;-62
2022/12/11 12:12:16;;;;;;;45.25;19.15;;;1.50;99.90;;;;;;5114890;28;20093;-62
2022/12/11 12:14:58;;;;;;;48.65;21.98;;;1.60;99.90;;;;;;5012188;28;20085;-62
2022/12/11 12:17:36;;;;;;;52.65;22.25;;;1.40;99.90;;;;;;5011940;28;20517;-62
2022/12/11 12:20:14;;;;;;;48.92;21.90;;;1.40;99.90;;;;;;5012111;28;20506;-63
2022/12/11 12:22:54;;;;;;;52.30;22.55;;;1.60;99.90;;;;;;5012176;28;20056;-62
2022/12/11 12:25:41;;;;;;;50.15;19.63;;;1.60;99.90;;;;;;5011897;28;20054;-62
2022/12/11 12:28:31;;;;;;;56.75;21.75;;;1.60;99.90;;;;;;5011857;28;20048;-62
2022/12/11 12:31:05;;;;;;;55.00;22.17;;;1.50;99.90;;;;;;5009922;28;20054;-62
2022/12/11 12:33:46;;;;;;;54.17;21.52;;;1.60;99.90;;;;;;5010117;28;20038;-62
2022/12/11 12:36:44;;;;;;;50.08;21.13;;;1.70;99.90;;;;;;5011538;28;20057;-63
2022/12/11 12:39:27;;;;;;;50.92;21.05;;;1.60;99.90;;;;;;5011351;28;20173;-62
2022/12/11 12:41:52;;;;;;;53.92;20.35;;;1.50;99.90;;;;;;5011654;28;20073;-62
2022/12/11 12:44:20;;;;;;;49.85;21.60;;;1.60;99.90;;;;;;5011475;28;20192;-62
2022/12/11 12:47:01;;;;;;;48.97;21.00;;;1.50;99.90;;;;;;5011583;28;20104;-62
2022/12/11 12:49:38;;;;;;;50.08;20.98;;;1.50;99.90;;;;;;5011531;28;20042;-62
2022/12/11 12:52:09;;;;;;;51.45;20.60;;;1.70;99.90;;;;;;5101736;28;20100;-62
2022/12/11 12:54:35;;;;;;;53.88;21.10;;;1.60;99.90;;;;;;5113897;28;20456;-62
2022/12/11 12:57:03;;;;;;;58.38;21.95;;;1.60;99.90;;;;;;5113669;28;20047;-62
2022/12/11 12:59:29;;;;;;;47.78;20.42;;;1.60;99.90;;;;;;5112292;28;20530;-62